sensor_id;sensor_type;location;lat;lon;timestamp;temperature;humidity
15879;DHT22;61999;51.514;14.614;2023-03-07T00:01:23;-0.90;62.30
15879;DHT22;61999;51.514;14.614;2023-03-07T00:03:52;-0.80;62.50
15879;DHT22;61999;51.514;14.614;2023-03-07T00:06:21;-1.00;61.80
15879;DHT22;61999;51.514;14.614;2023-03-07T00:08:49;-1.10;61.80
15879;DHT22;61999;51.514;14.614;2023-03-07T00:11:18;-1.10;62.40
15879;DHT22;61999;51.514;14.614;2023-03-07T00:13:47;-1.20;61.90
15879;DHT22;61999;51.514;14.614;2023-03-07T00:16:16;-1.30;62.00
15879;DHT22;61999;51.514;14.614;2023-03-07T00:18:47;-1.40;61.80
15879;DHT22;61999;51.514;14.614;2023-03-07T00:21:18;-1.60;61.80
15879;DHT22;61999;51.514;14.614;2023-03-07T00:23:51;-1.60;62.40
15879;DHT22;61999;51.514;14.614;2023-03-07T00:26:21;-1.60;62.40
15879;DHT22;61999;51.514;14.614;2023-03-07T00:28:52;-1.60;62.80
15879;DHT22;61999;51.514;14.614;2023-03-07T00:31:21;-1.60;62.40
15879;DHT22;61999;51.514;14.614;2023-03-07T00:33:52;-1.50;62.60
15879;DHT22;61999;51.514;14.614;2023-03-07T00:36:21;-1.60;61.80
15879;DHT22;61999;51.514;14.614;2023-03-07T00:38:50;-1.50;62.40
15879;DHT22;61999;51.514;14.614;2023-03-07T00:41:20;-1.60;62.80
15879;DHT22;61999;51.514;14.614;2023-03-07T00:43:50;-1.60;63.00
15879;DHT22;61999;51.514;14.614;2023-03-07T00:46:20;-1.70;63.00
15879;DHT22;61999;51.514;14.614;2023-03-07T00:48:49;-1.60;63.30
15879;DHT22;61999;51.514;14.614;2023-03-07T00:51:20;-1.40;63.00
15879;DHT22;61999;51.514;14.614;2023-03-07T00:53:50;-1.40;62.90
15879;DHT22;61999;51.514;14.614;2023-03-07T00:56:19;-1.40;62.90
15879;DHT22;61999;51.514;14.614;2023-03-07T00:58:49;-1.40;63.20
15879;DHT22;61999;51.514;14.614;2023-03-07T01:01:19;-1.40;63.40
15879;DHT22;61999;51.514;14.614;2023-03-07T01:03:49;-1.50;62.80
15879;DHT22;61999;51.514;14.614;2023-03-07T01:06:21;-1.50;63.30
15879;DHT22;61999;51.514;14.614;2023-03-07T01:08:51;-1.40;63.30
15879;DHT22;61999;51.514;14.614;2023-03-07T01:11:19;-1.60;63.20
15879;DHT22;61999;51.514;14.614;2023-03-07T01:13:47;-1.60;63.40
15879;DHT22;61999;51.514;14.614;2023-03-07T01:16:17;-1.50;63.60
15879;DHT22;61999;51.514;14.614;2023-03-07T01:18:48;-1.50;62.90
15879;DHT22;61999;51.514;14.614;2023-03-07T01:21:20;-1.40;63.10
15879;DHT22;61999;51.514;14.614;2023-03-07T01:23:50;-1.40;63.00
15879;DHT22;61999;51.514;14.614;2023-03-07T01:26:21;-1.50;62.50
15879;DHT22;61999;51.514;14.614;2023-03-07T01:28:52;-1.50;62.90
15879;DHT22;61999;51.514;14.614;2023-03-07T01:31:22;-1.40;62.80
15879;DHT22;61999;51.514;14.614;2023-03-07T01:33:52;-1.40;62.50
15879;DHT22;61999;51.514;14.614;2023-03-07T01:36:23;-1.40;62.40
15879;DHT22;61999;51.514;14.614;2023-03-07T01:38:57;-1.60;62.40
15879;DHT22;61999;51.514;14.614;2023-03-07T01:41:28;-1.50;63.20
15879;DHT22;61999;51.514;14.614;2023-03-07T01:43:58;-1.40;62.60
15879;DHT22;61999;51.514;14.614;2023-03-07T01:46:49;-1.40;62.40
15879;DHT22;61999;51.514;14.614;2023-03-07T01:49:31;-1.40;62.50
15879;DHT22;61999;51.514;14.614;2023-03-07T01:52:05;-1.40;62.30
15879;DHT22;61999;51.514;14.614;2023-03-07T01:54:39;-1.50;62.30
15879;DHT22;61999;51.514;14.614;2023-03-07T01:57:15;-1.60;62.60
15879;DHT22;61999;51.514;14.614;2023-03-07T01:59:49;-1.60;62.70
15879;DHT22;61999;51.514;14.614;2023-03-07T02:02:21;-1.50;62.50
15879;DHT22;61999;51.514;14.614;2023-03-07T02:04:54;-1.50;62.30
15879;DHT22;61999;51.514;14.614;2023-03-07T02:07:32;-1.40;62.50
15879;DHT22;61999;51.514;14.614;2023-03-07T02:10:06;-1.50;62.30
15879;DHT22;61999;51.514;14.614;2023-03-07T02:12:35;-1.60;62.50
15879;DHT22;61999;51.514;14.614;2023-03-07T02:15:06;-1.60;62.10
15879;DHT22;61999;51.514;14.614;2023-03-07T02:17:35;-1.70;62.60
15879;DHT22;61999;51.514;14.614;2023-03-07T02:20:18;-1.50;62.50
15879;DHT22;61999;51.514;14.614;2023-03-07T02:22:56;-1.60;61.80
15879;DHT22;61999;51.514;14.614;2023-03-07T02:25:30;-1.80;62.20
15879;DHT22;61999;51.514;14.614;2023-03-07T02:28:05;-1.80;62.30
15879;DHT22;61999;51.514;14.614;2023-03-07T02:30:35;-2.00;62.60
15879;DHT22;61999;51.514;14.614;2023-03-07T02:33:03;-2.00;62.90
15879;DHT22;61999;51.514;14.614;2023-03-07T02:35:31;-2.10;63.10
15879;DHT22;61999;51.514;14.614;2023-03-07T02:38:01;-2.20;63.10
15879;DHT22;61999;51.514;14.614;2023-03-07T02:40:31;-2.10;63.10
15879;DHT22;61999;51.514;14.614;2023-03-07T02:43:03;-2.10;63.50
15879;DHT22;61999;51.514;14.614;2023-03-07T02:45:35;-2.20;63.30
15879;DHT22;61999;51.514;14.614;2023-03-07T02:48:03;-2.10;63.80
15879;DHT22;61999;51.514;14.614;2023-03-07T02:50:31;-2.00;63.50
15879;DHT22;61999;51.514;14.614;2023-03-07T02:53:00;-2.00;63.20
15879;DHT22;61999;51.514;14.614;2023-03-07T02:55:28;-2.10;63.40
15879;DHT22;61999;51.514;14.614;2023-03-07T02:57:56;-2.10;63.30
15879;DHT22;61999;51.514;14.614;2023-03-07T03:00:26;-2.10;63.40
15879;DHT22;61999;51.514;14.614;2023-03-07T03:06:53;-2.50;63.30
15879;DHT22;61999;51.514;14.614;2023-03-07T03:09:21;-2.40;63.60
15879;DHT22;61999;51.514;14.614;2023-03-07T03:11:49;-2.30;64.00
15879;DHT22;61999;51.514;14.614;2023-03-07T03:14:17;-2.40;63.90
15879;DHT22;61999;51.514;14.614;2023-03-07T03:16:47;-2.40;64.00
15879;DHT22;61999;51.514;14.614;2023-03-07T03:19:15;-2.50;64.30
15879;DHT22;61999;51.514;14.614;2023-03-07T03:21:43;-2.40;63.40
15879;DHT22;61999;51.514;14.614;2023-03-07T03:24:11;-2.30;63.70
15879;DHT22;61999;51.514;14.614;2023-03-07T03:26:39;-2.10;63.70
15879;DHT22;61999;51.514;14.614;2023-03-07T03:29:07;-2.20;62.70
15879;DHT22;61999;51.514;14.614;2023-03-07T03:31:35;-2.10;63.00
15879;DHT22;61999;51.514;14.614;2023-03-07T03:34:05;-2.10;63.30
15879;DHT22;61999;51.514;14.614;2023-03-07T03:36:33;-2.10;63.30
15879;DHT22;61999;51.514;14.614;2023-03-07T03:39:01;-2.20;63.10
15879;DHT22;61999;51.514;14.614;2023-03-07T03:41:29;-2.20;63.70
15879;DHT22;61999;51.514;14.614;2023-03-07T03:43:58;-2.30;63.30
15879;DHT22;61999;51.514;14.614;2023-03-07T03:46:25;-2.20;63.70
15879;DHT22;61999;51.514;14.614;2023-03-07T03:48:54;-1.90;63.10
15879;DHT22;61999;51.514;14.614;2023-03-07T03:51:24;-2.00;63.30
15879;DHT22;61999;51.514;14.614;2023-03-07T03:53:54;-1.70;62.90
15879;DHT22;61999;51.514;14.614;2023-03-07T03:56:24;-1.70;62.30
15879;DHT22;61999;51.514;14.614;2023-03-07T03:58:55;-1.90;62.30
15879;DHT22;61999;51.514;14.614;2023-03-07T04:01:26;-1.70;62.50
15879;DHT22;61999;51.514;14.614;2023-03-07T04:03:56;-1.60;62.10
15879;DHT22;61999;51.514;14.614;2023-03-07T04:06:27;-1.60;62.10
15879;DHT22;61999;51.514;14.614;2023-03-07T04:08:57;-1.80;62.40
15879;DHT22;61999;51.514;14.614;2023-03-07T04:11:26;-1.80;62.80
15879;DHT22;61999;51.514;14.614;2023-03-07T04:13:54;-2.00;62.80
15879;DHT22;61999;51.514;14.614;2023-03-07T04:16:22;-1.80;63.70
15879;DHT22;61999;51.514;14.614;2023-03-07T04:18:50;-1.80;62.20
15879;DHT22;61999;51.514;14.614;2023-03-07T04:21:19;-1.70;62.00
15879;DHT22;61999;51.514;14.614;2023-03-07T04:23:49;-1.80;62.20
15879;DHT22;61999;51.514;14.614;2023-03-07T04:26:21;-1.90;62.50
15879;DHT22;61999;51.514;14.614;2023-03-07T04:28:49;-2.00;62.60
15879;DHT22;61999;51.514;14.614;2023-03-07T04:31:19;-2.00;62.40
15879;DHT22;61999;51.514;14.614;2023-03-07T04:33:50;-1.90;62.60
15879;DHT22;61999;51.514;14.614;2023-03-07T04:36:20;-2.00;62.90
15879;DHT22;61999;51.514;14.614;2023-03-07T04:38:51;-2.10;63.00
15879;DHT22;61999;51.514;14.614;2023-03-07T04:41:22;-2.20;62.80
15879;DHT22;61999;51.514;14.614;2023-03-07T04:43:52;-2.20;63.30
15879;DHT22;61999;51.514;14.614;2023-03-07T04:46:21;-2.20;63.40
15879;DHT22;61999;51.514;14.614;2023-03-07T04:48:49;-2.30;63.30
15879;DHT22;61999;51.514;14.614;2023-03-07T04:51:17;-2.10;63.70
15879;DHT22;61999;51.514;14.614;2023-03-07T04:53:45;-2.10;63.40
15879;DHT22;61999;51.514;14.614;2023-03-07T04:56:14;-2.10;63.30
15879;DHT22;61999;51.514;14.614;2023-03-07T04:58:43;-1.90;62.70
15879;DHT22;61999;51.514;14.614;2023-03-07T05:01:11;-1.90;63.00
15879;DHT22;61999;51.514;14.614;2023-03-07T05:03:39;-1.90;62.60
15879;DHT22;61999;51.514;14.614;2023-03-07T05:06:12;-2.10;63.00
15879;DHT22;61999;51.514;14.614;2023-03-07T05:08:41;-2.10;63.00
15879;DHT22;61999;51.514;14.614;2023-03-07T05:11:09;-2.10;63.10
15879;DHT22;61999;51.514;14.614;2023-03-07T05:13:41;-2.00;62.90
15879;DHT22;61999;51.514;14.614;2023-03-07T05:16:09;-2.20;63.00
15879;DHT22;61999;51.514;14.614;2023-03-07T05:18:40;-2.30;63.40
15879;DHT22;61999;51.514;14.614;2023-03-07T05:21:08;-2.20;63.40
15879;DHT22;61999;51.514;14.614;2023-03-07T05:23:36;-2.10;62.90
15879;DHT22;61999;51.514;14.614;2023-03-07T05:26:04;-2.10;62.90
15879;DHT22;61999;51.514;14.614;2023-03-07T05:28:32;-2.10;63.20
15879;DHT22;61999;51.514;14.614;2023-03-07T05:31:02;-2.10;63.10
15879;DHT22;61999;51.514;14.614;2023-03-07T05:33:30;-2.00;62.80
15879;DHT22;61999;51.514;14.614;2023-03-07T05:35:59;-2.10;63.00
15879;DHT22;61999;51.514;14.614;2023-03-07T05:38:27;-2.00;62.60
15879;DHT22;61999;51.514;14.614;2023-03-07T05:40:55;-2.00;62.70
15879;DHT22;61999;51.514;14.614;2023-03-07T05:43:23;-1.90;62.50
15879;DHT22;61999;51.514;14.614;2023-03-07T05:45:51;-1.90;62.40
15879;DHT22;61999;51.514;14.614;2023-03-07T05:48:21;-1.90;62.30
15879;DHT22;61999;51.514;14.614;2023-03-07T05:50:49;-2.00;62.80
15879;DHT22;61999;51.514;14.614;2023-03-07T05:53:17;-2.00;62.30
15879;DHT22;61999;51.514;14.614;2023-03-07T05:55:46;-2.10;62.90
15879;DHT22;61999;51.514;14.614;2023-03-07T05:58:17;-2.00;62.70
15879;DHT22;61999;51.514;14.614;2023-03-07T06:00:46;-2.00;62.90
15879;DHT22;61999;51.514;14.614;2023-03-07T06:03:15;-1.90;62.70
15879;DHT22;61999;51.514;14.614;2023-03-07T06:05:44;-1.80;62.30
15879;DHT22;61999;51.514;14.614;2023-03-07T06:08:15;-1.80;62.30
15879;DHT22;61999;51.514;14.614;2023-03-07T06:10:43;-1.80;62.30
15879;DHT22;61999;51.514;14.614;2023-03-07T06:13:17;-1.80;62.40
15879;DHT22;61999;51.514;14.614;2023-03-07T06:15:48;-2.10;62.80
15879;DHT22;61999;51.514;14.614;2023-03-07T06:18:16;-1.90;62.90
15879;DHT22;61999;51.514;14.614;2023-03-07T06:20:54;-1.90;62.60
15879;DHT22;61999;51.514;14.614;2023-03-07T06:23:24;-1.80;62.70
15879;DHT22;61999;51.514;14.614;2023-03-07T06:25:52;-1.70;62.90
15879;DHT22;61999;51.514;14.614;2023-03-07T06:28:21;-1.60;62.00
15879;DHT22;61999;51.514;14.614;2023-03-07T06:30:49;-1.60;62.10
15879;DHT22;61999;51.514;14.614;2023-03-07T06:33:17;-1.60;62.90
15879;DHT22;61999;51.514;14.614;2023-03-07T06:35:46;-1.70;63.40
15879;DHT22;61999;51.514;14.614;2023-03-07T06:38:16;-1.60;63.20
15879;DHT22;61999;51.514;14.614;2023-03-07T06:40:44;-1.60;63.70
15879;DHT22;61999;51.514;14.614;2023-03-07T06:43:12;-1.80;63.00
15879;DHT22;61999;51.514;14.614;2023-03-07T06:45:43;-1.80;63.70
15879;DHT22;61999;51.514;14.614;2023-03-07T06:48:11;-1.80;64.20
15879;DHT22;61999;51.514;14.614;2023-03-07T06:50:39;-1.90;64.90
15879;DHT22;61999;51.514;14.614;2023-03-07T06:53:07;-1.90;65.00
15879;DHT22;61999;51.514;14.614;2023-03-07T06:55:36;-1.70;64.30
15879;DHT22;61999;51.514;14.614;2023-03-07T06:58:05;-1.60;64.10
15879;DHT22;61999;51.514;14.614;2023-03-07T07:00:35;-1.70;65.00
15879;DHT22;61999;51.514;14.614;2023-03-07T07:03:03;-1.90;66.20
15879;DHT22;61999;51.514;14.614;2023-03-07T07:05:31;-2.10;66.90
15879;DHT22;61999;51.514;14.614;2023-03-07T07:07:59;-2.30;67.90
15879;DHT22;61999;51.514;14.614;2023-03-07T07:10:27;-2.50;68.70
15879;DHT22;61999;51.514;14.614;2023-03-07T07:12:57;-2.50;69.30
15879;DHT22;61999;51.514;14.614;2023-03-07T07:15:27;-2.60;69.60
15879;DHT22;61999;51.514;14.614;2023-03-07T07:17:55;-2.70;70.10
15879;DHT22;61999;51.514;14.614;2023-03-07T07:20:24;-2.80;70.70
15879;DHT22;61999;51.514;14.614;2023-03-07T07:22:53;-2.80;70.90
15879;DHT22;61999;51.514;14.614;2023-03-07T07:25:23;-2.80;71.60
15879;DHT22;61999;51.514;14.614;2023-03-07T07:27:52;-2.40;70.90
15879;DHT22;61999;51.514;14.614;2023-03-07T07:30:24;-2.30;70.20
15879;DHT22;61999;51.514;14.614;2023-03-07T07:32:56;-2.50;69.90
15879;DHT22;61999;51.514;14.614;2023-03-07T07:35:27;-2.50;71.20
15879;DHT22;61999;51.514;14.614;2023-03-07T07:37:55;-2.60;70.60
15879;DHT22;61999;51.514;14.614;2023-03-07T07:40:23;-2.60;71.50
15879;DHT22;61999;51.514;14.614;2023-03-07T07:42:51;-2.40;70.90
15879;DHT22;61999;51.514;14.614;2023-03-07T07:45:20;-2.40;70.80
15879;DHT22;61999;51.514;14.614;2023-03-07T07:47:50;-2.50;71.40
15879;DHT22;61999;51.514;14.614;2023-03-07T07:50:20;-2.50;71.00
15879;DHT22;61999;51.514;14.614;2023-03-07T07:52:52;-2.50;71.10
15879;DHT22;61999;51.514;14.614;2023-03-07T07:55:20;-2.60;71.30
15879;DHT22;61999;51.514;14.614;2023-03-07T07:57:50;-2.50;71.80
15879;DHT22;61999;51.514;14.614;2023-03-07T08:00:19;-2.30;71.70
15879;DHT22;61999;51.514;14.614;2023-03-07T08:02:50;-2.20;70.60
15879;DHT22;61999;51.514;14.614;2023-03-07T08:05:19;-2.30;71.30
15879;DHT22;61999;51.514;14.614;2023-03-07T08:07:48;-2.20;70.90
15879;DHT22;61999;51.514;14.614;2023-03-07T08:10:18;-2.10;70.60
15879;DHT22;61999;51.514;14.614;2023-03-07T08:12:47;-2.20;70.80
15879;DHT22;61999;51.514;14.614;2023-03-07T08:15:18;-2.20;71.00
15879;DHT22;61999;51.514;14.614;2023-03-07T08:17:49;-2.10;70.20
15879;DHT22;61999;51.514;14.614;2023-03-07T08:20:18;-2.10;70.50
15879;DHT22;61999;51.514;14.614;2023-03-07T08:22:49;-2.10;70.40
15879;DHT22;61999;51.514;14.614;2023-03-07T08:25:20;-2.20;70.60
15879;DHT22;61999;51.514;14.614;2023-03-07T08:27:50;-2.30;70.40
15879;DHT22;61999;51.514;14.614;2023-03-07T08:30:21;-2.30;70.80
15879;DHT22;61999;51.514;14.614;2023-03-07T08:32:52;-2.40;71.40
15879;DHT22;61999;51.514;14.614;2023-03-07T08:35:23;-2.20;71.30
15879;DHT22;61999;51.514;14.614;2023-03-07T08:37:53;-2.00;70.90
15879;DHT22;61999;51.514;14.614;2023-03-07T08:40:22;-1.90;70.00
15879;DHT22;61999;51.514;14.614;2023-03-07T08:42:51;-2.00;70.10
15879;DHT22;61999;51.514;14.614;2023-03-07T08:45:21;-2.20;71.00
15879;DHT22;61999;51.514;14.614;2023-03-07T08:47:52;-2.10;70.80
15879;DHT22;61999;51.514;14.614;2023-03-07T08:50:24;-2.00;70.30
15879;DHT22;61999;51.514;14.614;2023-03-07T08:52:53;-2.10;70.50
15879;DHT22;61999;51.514;14.614;2023-03-07T08:55:21;-2.10;70.80
15879;DHT22;61999;51.514;14.614;2023-03-07T08:57:49;-2.00;70.30
15879;DHT22;61999;51.514;14.614;2023-03-07T09:00:17;-1.90;70.30
15879;DHT22;61999;51.514;14.614;2023-03-07T09:02:46;-1.90;70.80
15879;DHT22;61999;51.514;14.614;2023-03-07T09:05:15;-1.70;69.90
15879;DHT22;61999;51.514;14.614;2023-03-07T09:07:44;-1.70;69.30
15879;DHT22;61999;51.514;14.614;2023-03-07T09:10:12;-1.60;69.10
15879;DHT22;61999;51.514;14.614;2023-03-07T09:12:40;-1.70;69.40
15879;DHT22;61999;51.514;14.614;2023-03-07T09:15:09;-1.60;69.20
15879;DHT22;61999;51.514;14.614;2023-03-07T09:17:37;-1.70;69.50
15879;DHT22;61999;51.514;14.614;2023-03-07T09:20:07;-1.50;69.80
15879;DHT22;61999;51.514;14.614;2023-03-07T09:22:38;-1.60;69.80
15879;DHT22;61999;51.514;14.614;2023-03-07T09:25:11;-1.50;69.70
15879;DHT22;61999;51.514;14.614;2023-03-07T09:27:39;-1.40;69.10
15879;DHT22;61999;51.514;14.614;2023-03-07T09:30:12;-1.60;70.50
15879;DHT22;61999;51.514;14.614;2023-03-07T09:32:41;-1.80;71.10
15879;DHT22;61999;51.514;14.614;2023-03-07T09:35:10;-1.70;71.20
15879;DHT22;61999;51.514;14.614;2023-03-07T09:37:39;-1.70;71.00
15879;DHT22;61999;51.514;14.614;2023-03-07T09:40:11;-1.70;71.50
15879;DHT22;61999;51.514;14.614;2023-03-07T09:42:53;-1.80;71.70
15879;DHT22;61999;51.514;14.614;2023-03-07T09:45:42;-1.80;72.40
15879;DHT22;61999;51.514;14.614;2023-03-07T09:48:36;-1.70;72.90
15879;DHT22;61999;51.514;14.614;2023-03-07T09:51:35;-1.60;72.20
15879;DHT22;61999;51.514;14.614;2023-03-07T09:54:10;-1.50;71.20
15879;DHT22;61999;51.514;14.614;2023-03-07T09:56:45;-1.60;71.90
15879;DHT22;61999;51.514;14.614;2023-03-07T09:59:19;-1.70;72.20
15879;DHT22;61999;51.514;14.614;2023-03-07T10:01:54;-1.50;72.10
15879;DHT22;61999;51.514;14.614;2023-03-07T10:04:37;-1.60;72.40
15879;DHT22;61999;51.514;14.614;2023-03-07T10:07:12;-1.60;72.40
15879;DHT22;61999;51.514;14.614;2023-03-07T10:09:44;-1.70;72.50
15879;DHT22;61999;51.514;14.614;2023-03-07T10:12:29;-2.00;74.20
15879;DHT22;61999;51.514;14.614;2023-03-07T10:15:24;-1.80;74.00
15879;DHT22;61999;51.514;14.614;2023-03-07T10:18:12;-2.00;73.60
15879;DHT22;61999;51.514;14.614;2023-03-07T10:20:49;-2.00;74.60
15879;DHT22;61999;51.514;14.614;2023-03-07T10:23:35;-2.00;74.70
15879;DHT22;61999;51.514;14.614;2023-03-07T10:26:15;-1.70;74.50
15879;DHT22;61999;51.514;14.614;2023-03-07T10:28:48;-1.70;74.30
15879;DHT22;61999;51.514;14.614;2023-03-07T10:31:21;-1.70;75.40
15879;DHT22;61999;51.514;14.614;2023-03-07T10:33:52;-1.60;74.70
15879;DHT22;61999;51.514;14.614;2023-03-07T10:36:29;-1.80;75.30
15879;DHT22;61999;51.514;14.614;2023-03-07T10:39:05;-1.90;76.40
15879;DHT22;61999;51.514;14.614;2023-03-07T10:41:48;-1.90;76.70
15879;DHT22;61999;51.514;14.614;2023-03-07T10:44:18;-2.00;77.10
15879;DHT22;61999;51.514;14.614;2023-03-07T10:46:52;-2.10;77.70
15879;DHT22;61999;51.514;14.614;2023-03-07T10:49:26;-2.10;77.80
15879;DHT22;61999;51.514;14.614;2023-03-07T10:51:59;-2.20;78.20
15879;DHT22;61999;51.514;14.614;2023-03-07T10:54:31;-2.20;78.70
15879;DHT22;61999;51.514;14.614;2023-03-07T10:57:07;-2.10;79.30
15879;DHT22;61999;51.514;14.614;2023-03-07T10:59:38;-1.80;78.10
15879;DHT22;61999;51.514;14.614;2023-03-07T11:02:30;-1.60;77.90
15879;DHT22;61999;51.514;14.614;2023-03-07T11:05:02;-1.60;77.40
15879;DHT22;61999;51.514;14.614;2023-03-07T11:07:44;-1.60;77.80
15879;DHT22;61999;51.514;14.614;2023-03-07T11:10:24;-1.60;77.80
15879;DHT22;61999;51.514;14.614;2023-03-07T11:13:06;-1.60;78.50
15879;DHT22;61999;51.514;14.614;2023-03-07T11:15:39;-1.40;78.30
15879;DHT22;61999;51.514;14.614;2023-03-07T11:18:24;-1.20;77.40
15879;DHT22;61999;51.514;14.614;2023-03-07T11:20:55;-1.30;76.70
15879;DHT22;61999;51.514;14.614;2023-03-07T11:23:27;-1.20;77.10
15879;DHT22;61999;51.514;14.614;2023-03-07T11:26:13;-1.00;77.30
15879;DHT22;61999;51.514;14.614;2023-03-07T11:28:44;-1.00;75.70
15879;DHT22;61999;51.514;14.614;2023-03-07T11:31:17;-1.10;75.60
15879;DHT22;61999;51.514;14.614;2023-03-07T11:33:52;-1.20;77.10
15879;DHT22;61999;51.514;14.614;2023-03-07T11:36:30;-1.20;76.40
15879;DHT22;61999;51.514;14.614;2023-03-07T11:39:00;-1.00;75.90
15879;DHT22;61999;51.514;14.614;2023-03-07T11:41:35;-1.00;75.90
15879;DHT22;61999;51.514;14.614;2023-03-07T11:44:20;-1.00;76.30
15879;DHT22;61999;51.514;14.614;2023-03-07T11:47:23;-1.00;76.30
15879;DHT22;61999;51.514;14.614;2023-03-07T11:50:14;-0.70;74.70
15879;DHT22;61999;51.514;14.614;2023-03-07T11:56:13;-0.90;74.90
15879;DHT22;61999;51.514;14.614;2023-03-07T12:02:28;-0.60;74.50
15879;DHT22;61999;51.514;14.614;2023-03-07T12:05:31;-0.70;74.70
15879;DHT22;61999;51.514;14.614;2023-03-07T12:08:27;-0.50;73.50
15879;DHT22;61999;51.514;14.614;2023-03-07T12:11:17;-0.40;73.80
15879;DHT22;61999;51.514;14.614;2023-03-07T12:14:05;-0.20;72.50
15879;DHT22;61999;51.514;14.614;2023-03-07T12:16:51;-0.20;72.20
15879;DHT22;61999;51.514;14.614;2023-03-07T12:19:48;-0.50;70.80
15879;DHT22;61999;51.514;14.614;2023-03-07T12:22:28;-0.60;72.70
15879;DHT22;61999;51.514;14.614;2023-03-07T12:25:17;-0.70;73.20
15879;DHT22;61999;51.514;14.614;2023-03-07T12:28:00;-0.40;72.40
15879;DHT22;61999;51.514;14.614;2023-03-07T12:30:40;-0.40;72.50
15879;DHT22;61999;51.514;14.614;2023-03-07T12:33:22;-0.40;72.00
15879;DHT22;61999;51.514;14.614;2023-03-07T12:36:01;-0.20;71.50
15879;DHT22;61999;51.514;14.614;2023-03-07T12:38:36;0.00;70.50
15879;DHT22;61999;51.514;14.614;2023-03-07T12:41:19;0.00;70.50
15879;DHT22;61999;51.514;14.614;2023-03-07T12:43:56;0.00;70.10
15879;DHT22;61999;51.514;14.614;2023-03-07T12:46:37;0.20;69.80
15879;DHT22;61999;51.514;14.614;2023-03-07T12:49:16;0.20;69.20
15879;DHT22;61999;51.514;14.614;2023-03-07T12:51:54;0.20;69.90
15879;DHT22;61999;51.514;14.614;2023-03-07T12:54:35;0.40;69.10
15879;DHT22;61999;51.514;14.614;2023-03-07T12:57:10;0.30;69.20
15879;DHT22;61999;51.514;14.614;2023-03-07T12:59:43;0.30;68.70
15879;DHT22;61999;51.514;14.614;2023-03-07T13:02:15;0.20;68.60
15879;DHT22;61999;51.514;14.614;2023-03-07T13:04:47;0.10;68.20
15879;DHT22;61999;51.514;14.614;2023-03-07T13:07:19;0.20;68.40
15879;DHT22;61999;51.514;14.614;2023-03-07T13:09:53;0.20;67.80
15879;DHT22;61999;51.514;14.614;2023-03-07T13:12:33;0.20;67.00
15879;DHT22;61999;51.514;14.614;2023-03-07T13:15:04;0.20;67.30
15879;DHT22;61999;51.514;14.614;2023-03-07T13:17:55;0.20;67.30
15879;DHT22;61999;51.514;14.614;2023-03-07T13:20:42;0.10;67.10
15879;DHT22;61999;51.514;14.614;2023-03-07T13:23:21;0.10;67.30
15879;DHT22;61999;51.514;14.614;2023-03-07T13:25:57;0.30;66.10
15879;DHT22;61999;51.514;14.614;2023-03-07T13:28:39;0.20;66.30
15879;DHT22;61999;51.514;14.614;2023-03-07T13:31:26;0.30;65.60
15879;DHT22;61999;51.514;14.614;2023-03-07T13:37:49;0.50;63.80
15879;DHT22;61999;51.514;14.614;2023-03-07T13:43:55;0.50;64.10
15879;DHT22;61999;51.514;14.614;2023-03-07T13:46:44;0.40;64.00
15879;DHT22;61999;51.514;14.614;2023-03-07T13:49:42;0.60;62.70
15879;DHT22;61999;51.514;14.614;2023-03-07T13:52:30;0.60;62.80
15879;DHT22;61999;51.514;14.614;2023-03-07T13:55:28;0.70;62.10
15879;DHT22;61999;51.514;14.614;2023-03-07T13:58:22;0.70;62.20
15879;DHT22;61999;51.514;14.614;2023-03-07T14:00:55;0.70;61.60
15879;DHT22;61999;51.514;14.614;2023-03-07T14:03:29;0.70;62.80
15879;DHT22;61999;51.514;14.614;2023-03-07T14:06:01;0.90;62.20
15879;DHT22;61999;51.514;14.614;2023-03-07T14:08:36;0.90;62.00
15879;DHT22;61999;51.514;14.614;2023-03-07T14:11:14;1.20;59.80
15879;DHT22;61999;51.514;14.614;2023-03-07T14:14:15;1.10;60.30
15879;DHT22;61999;51.514;14.614;2023-03-07T14:17:11;1.10;60.70
15879;DHT22;61999;51.514;14.614;2023-03-07T14:19:56;1.20;59.90
15879;DHT22;61999;51.514;14.614;2023-03-07T14:22:45;1.20;59.90
15879;DHT22;61999;51.514;14.614;2023-03-07T14:25:26;1.20;59.50
15879;DHT22;61999;51.514;14.614;2023-03-07T14:27:58;1.20;58.80
15879;DHT22;61999;51.514;14.614;2023-03-07T14:30:36;1.00;58.70
15879;DHT22;61999;51.514;14.614;2023-03-07T14:33:16;0.90;58.80
15879;DHT22;61999;51.514;14.614;2023-03-07T14:35:45;0.80;59.30
15879;DHT22;61999;51.514;14.614;2023-03-07T14:38:18;0.80;59.00
15879;DHT22;61999;51.514;14.614;2023-03-07T14:41:01;0.80;58.60
15879;DHT22;61999;51.514;14.614;2023-03-07T14:43:54;0.70;58.80
15879;DHT22;61999;51.514;14.614;2023-03-07T14:46:35;0.70;58.70
15879;DHT22;61999;51.514;14.614;2023-03-07T14:49:22;0.70;59.40
15879;DHT22;61999;51.514;14.614;2023-03-07T14:51:58;0.70;59.20
15879;DHT22;61999;51.514;14.614;2023-03-07T14:54:31;0.70;60.00
15879;DHT22;61999;51.514;14.614;2023-03-07T14:57:03;0.70;59.50
15879;DHT22;61999;51.514;14.614;2023-03-07T14:59:32;0.70;60.60
15879;DHT22;61999;51.514;14.614;2023-03-07T15:02:02;0.30;62.40
15879;DHT22;61999;51.514;14.614;2023-03-07T15:04:31;0.00;64.30
15879;DHT22;61999;51.514;14.614;2023-03-07T15:07:02;-0.10;65.00
15879;DHT22;61999;51.514;14.614;2023-03-07T15:09:37;-0.10;66.60
15879;DHT22;61999;51.514;14.614;2023-03-07T15:12:09;0.00;66.90
15879;DHT22;61999;51.514;14.614;2023-03-07T15:14:44;0.20;66.90
15879;DHT22;61999;51.514;14.614;2023-03-07T15:17:18;0.10;66.80
15879;DHT22;61999;51.514;14.614;2023-03-07T15:19:55;0.20;66.20
15879;DHT22;61999;51.514;14.614;2023-03-07T15:22:28;-0.10;67.30
15879;DHT22;61999;51.514;14.614;2023-03-07T15:25:05;-0.20;68.60
15879;DHT22;61999;51.514;14.614;2023-03-07T15:27:43;-0.10;69.00
15879;DHT22;61999;51.514;14.614;2023-03-07T15:30:22;0.10;67.90
15879;DHT22;61999;51.514;14.614;2023-03-07T15:33:04;0.20;66.80
15879;DHT22;61999;51.514;14.614;2023-03-07T15:35:42;0.20;67.70
15879;DHT22;61999;51.514;14.614;2023-03-07T15:38:16;0.20;67.80
15879;DHT22;61999;51.514;14.614;2023-03-07T15:40:49;0.50;66.80
15879;DHT22;61999;51.514;14.614;2023-03-07T15:43:26;0.50;66.50
15879;DHT22;61999;51.514;14.614;2023-03-07T15:46:03;0.80;65.60
15879;DHT22;61999;51.514;14.614;2023-03-07T15:48:37;0.70;65.60
15879;DHT22;61999;51.514;14.614;2023-03-07T15:51:13;0.90;63.60
15879;DHT22;61999;51.514;14.614;2023-03-07T15:53:44;0.60;64.30
15879;DHT22;61999;51.514;14.614;2023-03-07T15:56:25;0.60;64.60
15879;DHT22;61999;51.514;14.614;2023-03-07T15:59:00;0.60;64.20
15879;DHT22;61999;51.514;14.614;2023-03-07T16:01:32;0.50;64.70
15879;DHT22;61999;51.514;14.614;2023-03-07T16:04:02;0.40;65.30
15879;DHT22;61999;51.514;14.614;2023-03-07T16:06:32;0.30;65.50
15879;DHT22;61999;51.514;14.614;2023-03-07T16:09:11;0.30;66.30
15879;DHT22;61999;51.514;14.614;2023-03-07T16:11:40;0.30;66.40
15879;DHT22;61999;51.514;14.614;2023-03-07T16:14:16;0.40;66.30
15879;DHT22;61999;51.514;14.614;2023-03-07T16:16:52;0.40;66.50